Time;durP1;ratioP1;P1;durP2;ratioP2;P2;SDS_P1;SDS_P2;PMS_P1;PMS_P2;Temp;Humidity;BMP_temperature;BMP_pressure;BME280_temperature;BME280_humidity;BME280_pressure;Samples;Min_cycle;Max_cycle;Signal;HPM_P1;HPM_P2
2023/04/20 00:01:38;;;;;;;3.88;1.20;;;;;;;;;;5053504;28;20477;-81
2023/04/20 00:04:04;;;;;;;3.05;1.13;;;;;;;;;;5052877;28;20053;-80
2023/04/20 00:06:32;;;;;;;1.33;0.98;;;;;;;;;;5036267;28;20058;-81
2023/04/20 00:08:59;;;;;;;3.70;1.38;;;;;;;;;;5052644;28;20075;-80
2023/04/20 00:11:25;;;;;;;2.17;1.13;;;;;;;;;;5035899;28;20404;-80
2023/04/20 00:13:51;;;;;;;2.67;1.10;;;;;;;;;;5052081;28;20101;-80
2023/04/20 00:16:17;;;;;;;3.40;1.05;;;;;;;;;;5052382;28;20122;-80
2023/04/20 00:18:45;;;;;;;2.42;0.95;;;;;;;;;;5052706;28;20043;-79
2023/04/20 00:21:12;;;;;;;3.95;1.13;;;;;;;;;;5052453;28;20037;-81
2023/04/20 00:23:38;;;;;;;0.77;0.73;;;;;;;;;;5035920;28;20080;-80
2023/04/20 00:26:03;;;;;;;3.25;1.27;;;8.40;70.80;;;;;;5052761;28;20037;-81
2023/04/20 00:28:30;;;;;;;4.30;1.17;;;8.30;99.90;;;;;;5035510;28;20500;-80
2023/04/20 00:30:55;;;;;;;2.08;1.25;;;8.30;70.00;;;;;;5051880;28;20128;-80
2023/04/20 00:33:21;;;;;;;2.63;1.27;;;8.70;45.60;;;;;;5034752;28;20469;-80
2023/04/20 00:35:46;;;;;;;2.72;1.17;;;8.40;19.90;;;;;;5035226;28;20041;-80
2023/04/20 00:38:12;;;;;;;1.50;0.98;;;8.40;13.20;;;;;;5052176;28;20083;-80
2023/04/20 00:40:37;;;;;;;4.10;2.33;;;8.40;1.00;;;;;;5057788;28;20156;-81
2023/04/20 00:43:13;;;;;;;1.83;1.08;;;8.50;1.00;;;;;;5041656;28;20580;-80
2023/04/20 00:45:39;;;;;;;2.00;1.13;;;8.60;1.00;;;;;;5058541;28;20049;-80
2023/04/20 00:48:06;;;;;;;2.03;1.30;;;8.50;1.00;;;;;;5058579;28;20128;-80
2023/04/20 00:50:33;;;;;;;3.28;1.50;;;8.50;1.00;;;;;;5058060;28;20139;-80
2023/04/20 00:52:59;;;;;;;1.85;1.17;;;8.50;1.00;;;;;;5041552;28;20167;-81
2023/04/20 00:55:25;;;;;;;1.90;1.10;;;8.40;1.00;;;;;;5057938;28;20437;-81
2023/04/20 00:57:51;;;;;;;1.48;0.82;;;8.50;1.00;;;;;;5058048;28;20394;-80
2023/04/20 01:00:17;;;;;;;2.22;1.10;;;8.50;1.00;;;;;;5041471;28;20033;-81
2023/04/20 01:02:43;;;;;;;4.50;1.00;;;8.50;1.00;;;;;;5041750;28;20131;-80
2023/04/20 01:05:09;;;;;;;1.85;1.02;;;8.60;1.00;;;;;;5058116;28;20394;-80
2023/04/20 01:07:35;;;;;;;7.43;1.15;;;8.50;57.80;;;;;;5058307;28;20064;-81
2023/04/20 01:10:01;;;;;;;2.88;1.10;;;8.50;99.90;;;;;;5057773;28;20041;-81
2023/04/20 01:12:26;;;;;;;2.78;0.98;;;9.10;99.90;;;;;;5058085;28;20506;-81
2023/04/20 01:14:52;;;;;;;2.25;1.00;;;;;;;;;;5040906;28;20044;-80
2023/04/20 01:17:19;;;;;;;2.90;1.02;;;;;;;;;;5041482;28;20505;-79
2023/04/20 01:19:47;;;;;;;1.40;0.82;;;;;;;;;;5058355;28;20072;-80
2023/04/20 01:22:20;;;;;;;1.88;0.95;;;8.40;99.90;;;;;;5041455;28;20047;-80
2023/04/20 01:24:46;;;;;;;3.55;0.77;;;8.60;32.00;;;;;;5057601;28;20106;-80
2023/04/20 01:27:13;;;;;;;2.85;0.88;;;8.70;1.00;;;;;;5057912;28;20041;-80
2023/04/20 01:29:39;;;;;;;2.55;1.15;;;8.60;1.00;;;;;;5041110;28;20120;-80
2023/04/20 01:32:05;;;;;;;5.03;0.90;;;8.70;1.00;;;;;;5041504;28;20068;-80
2023/04/20 01:34:30;;;;;;;3.25;1.20;;;9.00;1.00;;;;;;5058477;28;20129;-80
2023/04/20 01:36:56;;;;;;;1.40;0.70;;;8.60;1.00;;;;;;5058695;28;20080;-81
2023/04/20 01:39:22;;;;;;;2.38;0.70;;;8.60;1.00;;;;;;5057741;28;20040;-80
2023/04/20 01:41:48;;;;;;;2.60;1.10;;;8.50;1.00;;;;;;5041387;28;20083;-80
2023/04/20 01:44:13;;;;;;;3.50;1.00;;;8.40;1.00;;;;;;5041813;28;20040;-80
2023/04/20 01:46:39;;;;;;;2.55;0.93;;;9.00;1.00;;;;;;5058518;28;20037;-80
2023/04/20 01:49:05;;;;;;;2.25;1.10;;;8.80;1.00;;;;;;5041364;28;20044;-80
2023/04/20 01:51:32;;;;;;;1.38;0.90;;;8.50;99.90;;;;;;5053491;28;20037;-81
2023/04/20 01:54:01;;;;;;;1.63;0.90;;;8.60;99.90;;;;;;5055320;28;20045;-80
2023/04/20 01:56:27;;;;;;;2.40;0.93;;;8.50;99.90;;;;;;5056596;28;20040;-80
2023/04/20 01:58:53;;;;;;;2.42;0.82;;;8.40;99.90;;;;;;5055638;28;20033;-80
2023/04/20 02:01:18;;;;;;;2.05;0.80;;;8.30;99.90;;;;;;5054904;28;20135;-80
2023/04/20 02:03:44;;;;;;;0.68;0.60;;;8.40;99.90;;;;;;5054601;28;20105;-80
2023/04/20 02:06:10;;;;;;;3.38;1.05;;;8.70;99.90;;;;;;5038042;28;20045;-81
2023/04/20 02:08:36;;;;;;;2.40;0.80;;;8.30;99.90;;;;;;5038371;28;20041;-80
2023/04/20 02:11:01;;;;;;;3.45;1.02;;;8.40;99.90;;;;;;5038038;28;20124;-80
2023/04/20 02:13:27;;;;;;;1.48;0.70;;;8.30;99.90;;;;;;5037328;28;20075;-80
2023/04/20 02:15:53;;;;;;;4.80;0.90;;;8.40;99.90;;;;;;5038129;28;20499;-80
2023/04/20 02:18:18;;;;;;;1.25;0.85;;;8.30;99.90;;;;;;5038456;28;20033;-80
2023/04/20 02:20:44;;;;;;;1.25;0.70;;;8.20;99.90;;;;;;5037632;28;20055;-81
2023/04/20 02:23:11;;;;;;;1.20;0.80;;;8.50;99.90;;;;;;5037927;28;20037;-81
2023/04/20 02:25:36;;;;;;;2.20;0.90;;;8.20;99.90;;;;;;5021568;28;20048;-81
2023/04/20 02:28:02;;;;;;;2.17;0.93;;;8.30;99.90;;;;;;5037146;28;20229;-80
2023/04/20 02:30:28;;;;;;;1.38;0.93;;;8.20;99.90;;;;;;5037438;28;20473;-80
2023/04/20 02:32:54;;;;;;;1.20;0.85;;;8.20;99.90;;;;;;5036958;28;20127;-80
2023/04/20 02:35:19;;;;;;;2.08;0.60;;;8.20;99.90;;;;;;5037390;28;20029;-81
2023/04/20 02:37:45;;;;;;;2.13;0.77;;;8.30;99.90;;;;;;5036469;28;20044;-81
2023/04/20 02:40:11;;;;;;;2.42;1.15;;;8.20;99.90;;;;;;5036776;28;20045;-80
2023/04/20 02:42:37;;;;;;;2.17;0.93;;;8.20;99.90;;;;;;5036406;28;20044;-81
2023/04/20 02:45:03;;;;;;;1.00;0.75;;;8.40;99.90;;;;;;5036624;28;20498;-80
2023/04/20 02:47:28;;;;;;;1.17;0.60;;;8.40;99.90;;;;;;5036362;28;20136;-82
2023/04/20 02:49:54;;;;;;;2.03;0.95;;;8.30;99.90;;;;;;5036321;28;20591;-80
2023/04/20 02:52:20;;;;;;;1.40;0.60;;;8.30;99.90;;;;;;5019849;28;20047;-81
2023/04/20 02:54:46;;;;;;;1.48;0.90;;;8.20;99.90;;;;;;5019882;28;20381;-80
2023/04/20 02:57:11;;;;;;;4.20;1.27;;;8.30;99.90;;;;;;5020086;28;20094;-80
2023/04/20 02:59:37;;;;;;;2.40;1.05;;;8.30;99.90;;;;;;5036025;28;20523;-80
2023/04/20 03:02:03;;;;;;;2.08;0.80;;;8.30;99.90;;;;;;5036426;28;20036;-80
2023/04/20 03:04:29;;;;;;;1.38;0.77;;;8.20;99.90;;;;;;5040750;28;20068;-80
2023/04/20 03:06:56;;;;;;;1.50;0.88;;;8.40;99.90;;;;;;5053146;28;20120;-81
2023/04/20 03:09:22;;;;;;;1.85;0.80;;;8.40;99.90;;;;;;5053248;28;20067;-79
2023/04/20 03:11:49;;;;;;;1.48;0.90;;;8.50;99.90;;;;;;5052786;28;20036;-81
2023/04/20 03:14:14;;;;;;;3.42;1.02;;;8.80;99.90;;;;;;5035838;28;20041;-80
2023/04/20 03:16:40;;;;;;;1.67;1.00;;;8.30;99.90;;;;;;5052689;28;20037;-81
2023/04/20 03:19:06;;;;;;;1.60;0.90;;;8.60;99.90;;;;;;5052451;28;20043;-80
2023/04/20 03:21:32;;;;;;;1.50;0.95;;;8.40;99.90;;;;;;5052515;28;20528;-81
2023/04/20 03:23:58;;;;;;;1.90;0.95;;;8.50;1.00;;;;;;5052519;28;20079;-80
2023/04/20 03:26:24;;;;;;;1.75;0.90;;;;;;;;;;5052454;28;20049;-81
2023/04/20 03:28:50;;;;;;;1.40;0.90;;;8.50;99.90;;;;;;5035456;28;20385;-82
2023/04/20 03:31:16;;;;;;;1.48;0.82;;;8.40;1.20;;;;;;5052475;28;20060;-81
2023/04/20 03:33:42;;;;;;;2.08;1.10;;;8.70;1.00;;;;;;5052113;28;20091;-83
2023/04/20 03:36:10;;;;;;;2.00;1.10;;;8.30;1.00;;;;;;5035441;28;20405;-80
2023/04/20 03:38:35;;;;;;;2.90;0.57;;;8.40;99.90;;;;;;5052183;28;20044;-80
2023/04/20 03:41:01;;;;;;;2.40;1.42;;;8.90;1.00;;;;;;5053059;28;20045;-81
2023/04/20 03:43:27;;;;;;;2.35;1.27;;;8.40;1.00;;;;;;5035772;28;20045;-80
2023/04/20 03:45:54;;;;;;;1.88;0.88;;;8.50;1.00;;;;;;5051802;28;20045;-80
2023/04/20 03:48:19;;;;;;;2.40;0.77;;;8.60;1.00;;;;;;5035303;28;20408;-80
2023/04/20 03:50:45;;;;;;;1.65;1.30;;;8.50;1.00;;;;;;5035245;28;20040;-81
2023/04/20 03:53:10;;;;;;;1.10;0.70;;;8.30;1.00;;;;;;5035009;28;20048;-81
2023/04/20 03:55:36;;;;;;;2.70;1.17;;;9.20;1.00;;;;;;5051567;28;20075;-81
2023/04/20 03:58:02;;;;;;;4.30;0.95;;;8.50;1.00;;;;;;5052093;28;20507;-80
2023/04/20 04:00:27;;;;;;;1.40;1.10;;;8.50;1.00;;;;;;5051905;28;20041;-81
2023/04/20 04:02:53;;;;;;;4.05;0.88;;;8.40;1.00;;;;;;5035559;28;20040;-80
2023/04/20 04:05:19;;;;;;;1.45;1.02;;;8.30;1.00;;;;;;5051544;28;20057;-80
2023/04/20 04:07:44;;;;;;;2.17;0.85;;;8.30;1.00;;;;;;5051830;28;20489;-82
2023/04/20 04:10:10;;;;;;;3.75;0.70;;;8.20;1.00;;;;;;5051700;28;20048;-81
2023/04/20 04:12:36;;;;;;;2.15;1.13;;;8.60;1.00;;;;;;5051827;28;20132;-81
2023/04/20 04:15:01;;;;;;;1.60;1.00;;;8.10;1.00;;;;;;5034739;28;20037;-81
2023/04/20 04:17:27;;;;;;;2.22;0.73;;;8.00;1.00;;;;;;5051385;28;20037;-82
2023/04/20 04:19:53;;;;;;;2.00;0.85;;;8.40;1.00;;;;;;5035454;28;20037;-81
2023/04/20 04:22:18;;;;;;;1.83;0.80;;;7.90;1.00;;;;;;5036005;28;20451;-82
2023/04/20 04:24:44;;;;;;;3.13;0.93;;;8.90;1.00;;;;;;5052347;28;20040;-81
2023/04/20 04:27:12;;;;;;;1.70;0.90;;;8.30;1.00;;;;;;5052133;28;20504;-81
2023/04/20 04:29:40;;;;;;;1.77;0.98;;;8.20;1.00;;;;;;5051599;28;20170;-80
2023/04/20 04:32:06;;;;;;;2.10;0.80;;;8.10;1.00;;;;;;5051783;28;20051;-81
2023/04/20 04:34:33;;;;;;;3.90;1.15;;;8.00;1.00;;;;;;5051181;28;20045;-78
2023/04/20 04:36:59;;;;;;;4.32;0.80;;;7.90;1.00;;;;;;5035080;28;20390;-79
2023/04/20 04:39:26;;;;;;;1.50;0.93;;;7.90;1.00;;;;;;5051195;28;20045;-79
2023/04/20 04:41:52;;;;;;;2.42;1.25;;;8.60;1.00;;;;;;5034614;28;20037;-74
2023/04/20 04:44:17;;;;;;;7.00;1.10;;;7.60;1.00;;;;;;5034842;28;20048;-83
2023/04/20 04:46:44;;;;;;;1.33;0.90;;;7.50;1.00;;;;;;5051974;28;20431;-80
2023/04/20 04:49:10;;;;;;;5.82;1.13;;;7.50;1.00;;;;;;5035190;28;20099;-81
2023/04/20 04:51:36;;;;;;;1.90;0.93;;;7.60;1.00;;;;;;5052044;28;20036;-81
2023/04/20 04:54:02;;;;;;;4.25;1.38;;;7.50;1.00;;;;;;5052163;28;20083;-81
2023/04/20 04:56:27;;;;;;;2.10;0.85;;;7.60;1.00;;;;;;5051748;28;20037;-80
2023/04/20 04:58:53;;;;;;;4.93;1.10;;;7.60;1.00;;;;;;5052006;28;20120;-80
2023/04/20 05:01:19;;;;;;;2.88;1.27;;;7.50;1.00;;;;;;5051800;28;20442;-80
2023/04/20 05:03:45;;;;;;;2.40;0.90;;;7.50;1.00;;;;;;5035266;28;20053;-80
2023/04/20 05:06:11;;;;;;;1.45;0.85;;;7.60;1.00;;;;;;5053435;28;20060;-80
2023/04/20 05:08:37;;;;;;;2.78;1.02;;;7.70;1.00;;;;;;5036100;28;20064;-79
2023/04/20 05:11:02;;;;;;;1.55;0.60;;;7.50;3.50;;;;;;5035818;28;20049;-81
2023/04/20 05:13:28;;;;;;;0.88;0.70;;;7.60;1.00;;;;;;5019545;28;20492;-80
2023/04/20 05:15:54;;;;;;;1.80;0.80;;;7.40;1.00;;;;;;5035404;28;20029;-81
2023/04/20 05:18:19;;;;;;;1.20;0.77;;;7.50;1.00;;;;;;5018097;28;20037;-75
2023/04/20 05:20:45;;;;;;;1.85;0.90;;;7.50;1.00;;;;;;5034681;28;20127;-79
2023/04/20 05:23:10;;;;;;;0.80;0.60;;;8.00;6.50;;;;;;5034438;28;20083;-79
2023/04/20 05:25:36;;;;;;;2.55;0.93;;;7.60;12.10;;;;;;5036213;28;20509;-80
2023/04/20 05:28:02;;;;;;;3.22;0.93;;;7.60;13.80;;;;;;5038071;28;20455;-79
2023/04/20 05:30:28;;;;;;;1.27;0.77;;;7.50;6.50;;;;;;5038771;28;20087;-77
2023/04/20 05:32:53;;;;;;;3.17;1.05;;;7.50;21.90;;;;;;5038435;28;20037;-78
2023/04/20 05:35:20;;;;;;;2.28;0.93;;;7.60;40.90;;;;;;5039853;28;20413;-79
2023/04/20 05:37:46;;;;;;;3.42;1.00;;;7.40;90.80;;;;;;5039433;28;20045;-79
2023/04/20 05:40:12;;;;;;;1.75;1.00;;;;;;;;;;5039017;28;20037;-80
2023/04/20 05:42:39;;;;;;;4.57;0.90;;;;;;;;;;5038928;28;20041;-79
2023/04/20 05:45:05;;;;;;;1.90;1.05;;;;;;;;;;5040677;28;20512;-79
2023/04/20 05:47:31;;;;;;;1.00;0.80;;;7.40;99.90;;;;;;5023582;28;20377;-79
2023/04/20 05:49:57;;;;;;;1.63;1.08;;;7.90;99.90;;;;;;5041116;28;20048;-80
2023/04/20 05:52:23;;;;;;;1.75;0.73;;;7.90;99.90;;;;;;5022760;28;20122;-79
2023/04/20 05:54:48;;;;;;;1.15;0.70;;;7.20;99.90;;;;;;5038732;28;20163;-80
2023/04/20 05:57:14;;;;;;;3.92;0.90;;;7.30;99.90;;;;;;5022186;28;20033;-79
2023/04/20 05:59:40;;;;;;;1.35;1.10;;;7.70;99.90;;;;;;5021715;28;20033;-78
2023/04/20 06:02:06;;;;;;;1.35;1.08;;;7.20;99.90;;;;;;5037706;28;20068;-79
2023/04/20 06:04:32;;;;;;;1.50;1.02;;;7.30;99.90;;;;;;5042331;28;20110;-79
2023/04/20 06:06:59;;;;;;;4.45;1.30;;;7.90;99.90;;;;;;5054317;28;20066;-79
2023/04/20 06:09:24;;;;;;;2.97;1.48;;;7.20;99.90;;;;;;5054278;28;20170;-80
2023/04/20 06:11:50;;;;;;;1.75;0.85;;;7.50;99.90;;;;;;5037620;28;20131;-80
2023/04/20 06:14:16;;;;;;;2.47;0.75;;;7.30;99.90;;;;;;5037559;28;20043;-78
2023/04/20 06:16:41;;;;;;;1.77;0.88;;;7.30;99.90;;;;;;5037504;28;20028;-79
2023/04/20 06:19:07;;;;;;;1.95;1.15;;;7.30;99.90;;;;;;5054354;28;20049;-78
2023/04/20 06:21:34;;;;;;;2.72;1.10;;;7.20;99.90;;;;;;5054219;28;20090;-80
2023/04/20 06:23:59;;;;;;;2.13;1.27;;;7.20;99.90;;;;;;5054073;28;20488;-81
2023/04/20 06:26:25;;;;;;;1.77;0.98;;;7.10;99.90;;;;;;5037864;28;20091;-82
2023/04/20 06:28:52;;;;;;;0.82;0.73;;;7.20;99.90;;;;;;5054300;28;20053;-81
2023/04/20 06:31:18;;;;;;;2.00;1.10;;;7.20;99.90;;;;;;5037225;28;20476;-80
2023/04/20 06:33:43;;;;;;;1.77;0.88;;;6.80;1.00;;;;;;5053794;28;20049;-81
2023/04/20 06:36:09;;;;;;;2.05;1.15;;;7.00;99.90;;;;;;5053638;28;20484;-82
2023/04/20 06:38:35;;;;;;;2.40;0.95;;;7.20;99.90;;;;;;5036840;28;20493;-81
2023/04/20 06:41:01;;;;;;;1.92;1.00;;;7.00;1.00;;;;;;5053870;28;20047;-81
2023/04/20 06:43:28;;;;;;;1.98;1.17;;;6.90;1.00;;;;;;5037325;28;20052;-79
2023/04/20 06:45:54;;;;;;;1.55;1.15;;;6.70;46.60;;;;;;5037099;28;20055;-80
2023/04/20 06:48:19;;;;;;;2.05;0.95;;;6.80;43.90;;;;;;5037194;28;20493;-80
2023/04/20 06:50:49;;;;;;;1.48;1.08;;;6.50;1.00;;;;;;5053971;28;20099;-80
2023/04/20 06:53:16;;;;;;;3.40;1.10;;;6.60;73.00;;;;;;5053237;28;20041;-80
2023/04/20 06:55:41;;;;;;;2.08;1.20;;;6.70;67.00;;;;;;5037133;28;20073;-81
2023/04/20 06:58:07;;;;;;;1.98;1.20;;;6.60;99.90;;;;;;5053786;28;20526;-81
2023/04/20 07:00:33;;;;;;;2.40;1.20;;;6.40;50.70;;;;;;5053694;28;20044;-81
2023/04/20 07:02:58;;;;;;;1.55;1.08;;;6.60;99.90;;;;;;5036598;28;20045;-81
2023/04/20 07:05:27;;;;;;;2.70;1.15;;;6.50;1.00;;;;;;5052958;28;20084;-81
2023/04/20 07:07:53;;;;;;;1.70;1.13;;;6.40;58.10;;;;;;5053026;28;20457;-80
2023/04/20 07:10:19;;;;;;;4.43;1.20;;;6.40;99.90;;;;;;5053290;28;20130;-80
2023/04/20 07:12:44;;;;;;;2.17;1.02;;;6.60;99.90;;;;;;5036328;28;20041;-80
2023/04/20 07:15:11;;;;;;;2.63;1.38;;;;;;;;;;5053196;28;20029;-80
2023/04/20 07:17:37;;;;;;;1.80;1.15;;;;;;;;;;5053068;28;20477;-80
2023/04/20 07:20:09;;;;;;;1.75;1.10;;;;;;;;;;5052755;28;20073;-81
2023/04/20 07:22:38;;;;;;;4.25;1.20;;;6.50;99.90;;;;;;5052758;28;20041;-82
2023/04/20 07:25:06;;;;;;;2.90;1.33;;;6.40;1.00;;;;;;5052624;28;20405;-81
2023/04/20 07:27:36;;;;;;;1.30;1.02;;;6.60;1.00;;;;;;5052594;28;20123;-81
2023/04/20 07:30:03;;;;;;;2.95;1.23;;;6.60;99.90;;;;;;5052874;28;20041;-80
2023/04/20 07:32:28;;;;;;;3.40;1.48;;;6.70;1.00;;;;;;5052435;28;20044;-82
2023/04/20 07:34:54;;;;;;;3.00;1.20;;;6.60;4.10;;;;;;5052711;28;20444;-82
2023/04/20 07:37:20;;;;;;;7.28;1.48;;;6.80;84.30;;;;;;5036498;28;20040;-81
2023/04/20 07:39:45;;;;;;;1.67;1.10;;;6.80;1.00;;;;;;5036216;28;20039;-81
2023/04/20 07:42:11;;;;;;;3.72;1.88;;;6.70;99.90;;;;;;5036255;28;20040;-81
2023/04/20 07:44:37;;;;;;;2.33;1.20;;;6.50;99.90;;;;;;5052451;28;20041;-81
2023/04/20 07:47:02;;;;;;;2.05;1.08;;;6.90;99.90;;;;;;5052302;28;20043;-82
2023/04/20 07:49:29;;;;;;;3.00;1.55;;;;;;;;;;5051140;28;20037;-80
2023/04/20 07:51:55;;;;;;;2.25;1.27;;;;;;;;;;5052048;28;20041;-81
2023/04/20 07:54:21;;;;;;;4.60;1.65;;;7.50;46.80;;;;;;5052371;28;20465;-82
2023/04/20 07:56:46;;;;;;;3.45;1.50;;;7.10;99.90;;;;;;5035864;28;20037;-82
2023/04/20 07:59:12;;;;;;;2.55;1.25;;;7.10;1.00;;;;;;5035381;28;20037;-81
2023/04/20 08:01:38;;;;;;;3.17;1.52;;;7.10;59.80;;;;;;5052176;28;20124;-82
2023/04/20 08:04:03;;;;;;;3.78;1.70;;;7.10;99.90;;;;;;5052159;28;20195;-82
2023/04/20 08:06:29;;;;;;;2.53;1.70;;;7.70;99.90;;;;;;5051980;28;20041;-82
2023/04/20 08:08:55;;;;;;;2.47;1.40;;;7.30;34.10;;;;;;5051887;28;20090;-81
2023/04/20 08:11:20;;;;;;;3.83;1.63;;;7.30;99.90;;;;;;5052126;28;20049;-82
2023/04/20 08:13:46;;;;;;;1.58;1.08;;;7.20;71.90;;;;;;5035461;28;20041;-82
2023/04/20 08:16:12;;;;;;;5.35;1.40;;;7.40;99.90;;;;;;5035674;28;20029;-82
2023/04/20 08:18:37;;;;;;;1.77;1.40;;;7.10;99.90;;;;;;5051799;28;20037;-83
2023/04/20 08:21:03;;;;;;;5.70;1.67;;;7.50;99.90;;;;;;5052472;28;20033;-83
2023/04/20 08:23:28;;;;;;;2.33;1.38;;;7.60;99.90;;;;;;5035468;28;20480;-83
2023/04/20 08:25:54;;;;;;;2.60;1.70;;;7.70;70.70;;;;;;5035749;28;20591;-82
2023/04/20 08:28:22;;;;;;;2.95;1.80;;;7.70;99.90;;;;;;5035316;28;20512;-82
2023/04/20 08:30:47;;;;;;;2.47;1.63;;;7.70;99.90;;;;;;5034926;28;20041;-82
2023/04/20 08:33:13;;;;;;;4.03;1.60;;;7.70;99.90;;;;;;5051818;28;20094;-82
2023/04/20 08:35:38;;;;;;;2.30;1.33;;;7.70;50.10;;;;;;5052289;28;20124;-83
2023/04/20 08:38:04;;;;;;;2.42;1.13;;;8.20;99.90;;;;;;5052031;28;20056;-82
2023/04/20 08:40:31;;;;;;;4.43;1.70;;;7.60;99.90;;;;;;5052132;28;20111;-83
2023/04/20 08:42:58;;;;;;;2.13;1.33;;;7.50;99.90;;;;;;5052012;28;20041;-83
2023/04/20 08:45:25;;;;;;;1.83;1.27;;;7.50;1.00;;;;;;5035513;28;20408;-82
2023/04/20 08:47:51;;;;;;;5.35;1.50;;;7.60;99.90;;;;;;5052138;28;20618;-82
2023/04/20 08:50:18;;;;;;;2.38;1.42;;;7.50;82.40;;;;;;5052123;28;20063;-82
2023/04/20 08:52:44;;;;;;;2.78;1.30;;;7.50;99.90;;;;;;5052236;28;20390;-83
2023/04/20 08:55:13;;;;;;;2.95;1.27;;;7.50;99.90;;;;;;5051972;28;20103;-82
2023/04/20 08:57:40;;;;;;;3.22;1.50;;;7.60;99.90;;;;;;5035301;28;20037;-82
2023/04/20 09:00:07;;;;;;;3.78;1.50;;;7.60;18.10;;;;;;5053379;28;20043;-83
2023/04/20 09:02:32;;;;;;;2.22;1.40;;;7.70;99.90;;;;;;5038925;28;20037;-83
2023/04/20 09:05:05;;;;;;;2.97;1.67;;;7.70;99.90;;;;;;5056378;28;20060;-83
2023/04/20 09:07:31;;;;;;;2.42;1.50;;;7.80;99.90;;;;;;5055745;28;20124;-83
2023/04/20 09:09:58;;;;;;;2.33;1.30;;;7.80;99.90;;;;;;5055836;28;20504;-83
2023/04/20 09:12:24;;;;;;;2.40;1.40;;;7.80;99.90;;;;;;5055875;28;20112;-82
2023/04/20 09:14:50;;;;;;;2.90;1.58;;;7.80;99.90;;;;;;5056356;28;20179;-82
2023/04/20 09:17:28;;;;;;;2.60;1.77;;;7.80;99.90;;;;;;5038846;28;20068;-82
2023/04/20 09:19:54;;;;;;;3.05;2.00;;;7.80;99.90;;;;;;5038921;28;20125;-82
2023/04/20 09:22:31;;;;;;;5.32;1.95;;;7.70;99.90;;;;;;5038837;28;20116;-82
2023/04/20 09:24:57;;;;;;;5.05;1.80;;;7.70;99.90;;;;;;5055206;28;20049;-82
2023/04/20 09:27:25;;;;;;;4.78;2.00;;;7.70;99.90;;;;;;5055548;28;20124;-77
2023/04/20 09:30:02;;;;;;;5.00;1.52;;;7.80;99.90;;;;;;5055538;28;20078;-81
2023/04/20 09:32:29;;;;;;;2.47;1.52;;;8.00;30.10;;;;;;5055447;28;20397;-81
2023/04/20 09:34:55;;;;;;;3.25;1.88;;;8.10;39.40;;;;;;5038849;28;20124;-81
2023/04/20 09:37:24;;;;;;;4.20;1.80;;;8.30;1.00;;;;;;5055417;28;20029;-81
2023/04/20 09:39:50;;;;;;;4.13;1.77;;;8.40;99.90;;;;;;5055540;28;20120;-82
2023/04/20 09:42:16;;;;;;;3.42;2.03;;;8.30;35.00;;;;;;5055123;28;20088;-81
2023/04/20 09:44:43;;;;;;;4.65;1.80;;;8.30;99.90;;;;;;5038434;28;20052;-81
2023/04/20 09:47:15;;;;;;;2.17;1.38;;;8.30;1.00;;;;;;5054888;28;20416;-81
2023/04/20 09:49:42;;;;;;;6.07;1.98;;;8.20;99.90;;;;;;5038094;28;20386;-82
2023/04/20 09:52:08;;;;;;;2.53;1.40;;;8.20;1.00;;;;;;5054862;28;20045;-82
2023/04/20 09:54:36;;;;;;;3.17;1.88;;;8.20;1.00;;;;;;5054653;28;20044;-82
2023/04/20 09:57:02;;;;;;;4.18;1.80;;;8.20;99.90;;;;;;5054800;28;20041;-81
2023/04/20 09:59:31;;;;;;;3.20;2.00;;;8.20;99.90;;;;;;5054366;28;20051;-81
2023/04/20 10:01:57;;;;;;;3.83;1.73;;;8.30;99.90;;;;;;5037936;28;20408;-82
2023/04/20 10:04:23;;;;;;;3.50;1.98;;;8.20;1.00;;;;;;5054535;28;20061;-80
2023/04/20 10:06:54;;;;;;;3.67;1.80;;;8.20;99.90;;;;;;5054409;28;20080;-82
2023/04/20 10:09:25;;;;;;;3.10;2.00;;;8.30;99.90;;;;;;5054067;28;20408;-81
2023/04/20 10:11:51;;;;;;;3.38;1.90;;;8.30;99.90;;;;;;5053098;28;20045;-81
2023/04/20 10:14:18;;;;;;;2.33;1.73;;;8.40;1.00;;;;;;5054231;28;20077;-81
2023/04/20 10:16:45;;;;;;;2.72;1.75;;;8.40;99.90;;;;;;5037859;28;20043;-82
2023/04/20 10:19:11;;;;;;;5.65;2.38;;;8.40;99.90;;;;;;5054456;28;20507;-81
2023/04/20 10:21:49;;;;;;;4.25;1.63;;;8.40;99.90;;;;;;5054193;28;20040;-81
2023/04/20 10:24:27;;;;;;;4.85;2.35;;;8.50;99.90;;;;;;5054460;28;20191;-80
2023/04/20 10:26:52;;;;;;;3.85;1.73;;;9.70;99.90;;;;;;5053791;28;20045;-81
2023/04/20 10:29:26;;;;;;;5.00;2.45;;;8.50;99.90;;;;;;5053941;28;20056;-80
2023/04/20 10:31:53;;;;;;;2.50;1.77;;;8.50;99.90;;;;;;5037425;28;20100;-82
2023/04/20 10:34:35;;;;;;;5.22;2.30;;;8.60;99.90;;;;;;5053745;28;20128;-82
2023/04/20 10:37:08;;;;;;;2.33;1.73;;;8.60;1.00;;;;;;5037220;28;20052;-81
2023/04/20 10:39:36;;;;;;;3.65;2.08;;;8.80;99.90;;;;;;5053678;28;20119;-80
2023/04/20 10:42:02;;;;;;;4.00;2.80;;;9.90;99.90;;;;;;5037284;28;20565;-81
2023/04/20 10:44:28;;;;;;;4.25;2.40;;;9.20;1.00;;;;;;5054039;28;20123;-79
2023/04/20 10:46:54;;;;;;;4.93;2.28;;;8.90;1.00;;;;;;5053505;28;20040;-82
2023/04/20 10:49:25;;;;;;;4.80;2.33;;;8.50;1.00;;;;;;5053965;28;20119;-80
2023/04/20 10:51:52;;;;;;;2.78;1.65;;;8.40;99.90;;;;;;5053467;28;20442;-80
2023/04/20 10:54:19;;;;;;;6.75;2.60;;;8.40;99.90;;;;;;5053605;28;20048;-80
2023/04/20 10:56:52;;;;;;;4.65;2.67;;;8.30;1.00;;;;;;5036595;28;20244;-81
2023/04/20 10:59:20;;;;;;;4.40;2.30;;;8.30;99.90;;;;;;5036951;28;20041;-80
2023/04/20 11:01:47;;;;;;;5.13;2.70;;;8.40;99.90;;;;;;5036622;28;20047;-81
2023/04/20 11:04:13;;;;;;;7.00;2.47;;;10.10;84.80;;;;;;5053232;28;20142;-81
2023/04/20 11:06:41;;;;;;;7.60;2.78;;;8.80;99.90;;;;;;5053035;28;20048;-80
2023/04/20 11:09:22;;;;;;;7.20;2.63;;;9.90;99.90;;;;;;5053362;28;20033;-82
2023/04/20 11:12:02;;;;;;;3.80;2.45;;;9.30;1.00;;;;;;5052899;28;20095;-81
2023/04/20 11:14:39;;;;;;;3.90;2.23;;;9.30;99.90;;;;;;5052915;28;20040;-80
2023/04/20 11:17:05;;;;;;;10.85;3.40;;;9.30;99.90;;;;;;5053362;28;20043;-81
2023/04/20 11:19:35;;;;;;;5.60;2.78;;;9.30;1.00;;;;;;5036147;28;20159;-81
2023/04/20 11:22:02;;;;;;;6.57;2.47;;;9.20;70.70;;;;;;5036275;28;20071;-81
2023/04/20 11:24:30;;;;;;;8.45;3.35;;;9.20;99.90;;;;;;5036462;28;20508;-82
2023/04/20 11:26:56;;;;;;;5.07;2.53;;;9.20;99.90;;;;;;5054177;28;20049;-82
2023/04/20 11:29:32;;;;;;;4.30;2.83;;;9.20;99.90;;;;;;5037606;28;20044;-81
2023/04/20 11:31:59;;;;;;;4.68;2.70;;;9.40;99.90;;;;;;5053608;28;20040;-81
2023/04/20 11:34:25;;;;;;;4.88;2.95;;;9.50;70.90;;;;;;5053316;28;20124;-82
2023/04/20 11:36:51;;;;;;;6.45;3.45;;;10.10;68.30;;;;;;5053650;28;20037;-80
2023/04/20 11:39:30;;;;;;;6.70;3.08;;;;;;;;;;5053467;28;20068;-81
2023/04/20 11:41:56;;;;;;;5.45;3.00;;;;;;;;;;5037384;28;20072;-82
2023/04/20 11:44:26;;;;;;;7.03;3.22;;;;;;;;;;5052913;28;20094;-81
2023/04/20 11:46:53;;;;;;;6.93;3.92;;;;;;;;;;5052823;28;20044;-81
2023/04/20 11:49:20;;;;;;;8.27;3.78;;;;;;;;;;5036268;28;20052;-81
2023/04/20 11:51:46;;;;;;;6.70;3.08;;;11.20;99.90;;;;;;5052362;28;20128;-80
2023/04/20 11:54:13;;;;;;;5.30;3.08;;;11.40;99.90;;;;;;5052296;28;20033;-80
2023/04/20 11:56:40;;;;;;;4.97;2.72;;;11.50;99.90;;;;;;5052250;28;20033;-81
2023/04/20 11:59:07;;;;;;;6.97;2.80;;;11.60;99.90;;;;;;5052563;28;20077;-81
2023/04/20 12:01:33;;;;;;;5.82;2.80;;;11.20;99.90;;;;;;5052487;28;20059;-80
2023/04/20 12:04:02;;;;;;;7.22;2.53;;;11.00;99.90;;;;;;5052469;28;20092;-81
2023/04/20 12:06:28;;;;;;;5.78;2.50;;;11.10;99.90;;;;;;5019249;28;20045;-81
2023/04/20 12:08:55;;;;;;;6.80;2.60;;;11.40;99.90;;;;;;5051938;28;20037;-80
2023/04/20 12:11:21;;;;;;;4.57;2.58;;;11.20;99.90;;;;;;5052266;28;20049;-82
2023/04/20 12:13:46;;;;;;;6.30;3.10;;;11.50;99.90;;;;;;5051931;28;20048;-81
2023/04/20 12:16:13;;;;;;;7.05;2.72;;;12.00;99.90;;;;;;5051827;28;20029;-80
2023/04/20 12:18:40;;;;;;;5.97;2.95;;;11.60;99.90;;;;;;5051739;28;20043;-81
2023/04/20 12:21:06;;;;;;;6.72;3.08;;;11.80;99.90;;;;;;5052197;28;20070;-82
2023/04/20 12:23:32;;;;;;;8.82;3.92;;;11.40;99.90;;;;;;5051935;28;20123;-80
2023/04/20 12:25:58;;;;;;;5.70;3.33;;;11.70;99.90;;;;;;5052305;28;20084;-80
2023/04/20 12:28:24;;;;;;;5.80;3.33;;;11.20;99.90;;;;;;5035419;28;20033;-80
2023/04/20 12:30:49;;;;;;;8.57;2.78;;;11.20;99.90;;;;;;5051878;28;20443;-81
2023/04/20 12:33:15;;;;;;;4.88;3.35;;;12.00;99.90;;;;;;5051603;28;20048;-81
2023/04/20 12:35:42;;;;;;;8.13;3.75;;;12.50;99.90;;;;;;5034528;28;20033;-82
2023/04/20 12:38:08;;;;;;;3.88;2.78;;;;;;;;;;5051937;28;20386;-81
2023/04/20 12:40:34;;;;;;;6.00;3.67;;;;;;;;;;5035154;28;20067;-81
2023/04/20 12:43:00;;;;;;;6.25;3.20;;;;;;;;;;5052005;28;20041;-81
2023/04/20 12:45:26;;;;;;;6.10;3.60;;;;;;;;;;5051538;28;20056;-82
2023/04/20 12:47:52;;;;;;;5.40;2.92;;;;;;;;;;5035005;28;20041;-81
2023/04/20 12:50:18;;;;;;;5.40;3.03;;;11.70;99.90;;;;;;5052073;28;20528;-80
2023/04/20 12:52:43;;;;;;;7.05;2.85;;;11.60;99.90;;;;;;5051767;28;20044;-81
2023/04/20 12:55:10;;;;;;;4.68;2.92;;;11.70;99.90;;;;;;5051383;28;20074;-81
2023/04/20 12:57:36;;;;;;;6.00;2.92;;;11.40;99.90;;;;;;5051454;28;20053;-82
2023/04/20 13:00:01;;;;;;;5.47;2.88;;;11.30;99.90;;;;;;5051462;28;20502;-81
2023/04/20 13:02:27;;;;;;;4.35;2.70;;;11.70;99.90;;;;;;5051510;28;20455;-80
2023/04/20 13:04:53;;;;;;;5.30;3.35;;;11.70;99.90;;;;;;5051369;28;20059;-80